Time;durP1;ratioP1;P1;durP2;ratioP2;P2;SDS_P1;SDS_P2;PMS_P1;PMS_P2;Temp;Humidity;BMP_temperature;BMP_pressure;BME280_temperature;BME280_humidity;BME280_pressure;Samples;Min_cycle;Max_cycle;Signal;HPM_P1;HPM_P2
2024/01/19 00:00:02;;;;;;;24.63;16.03;;;3.20;99.90;;;;;;5023116;28;20214;-52
2024/01/19 00:02:28;;;;;;;22.33;15.47;;;3.30;99.90;;;;;;5020444;28;20676;-53
2024/01/19 00:04:55;;;;;;;24.57;15.87;;;3.40;99.90;;;;;;5019294;28;20280;-53
2024/01/19 00:07:22;;;;;;;23.60;16.27;;;3.30;99.90;;;;;;5020951;28;20206;-55
2024/01/19 00:09:50;;;;;;;24.37;16.57;;;3.30;99.90;;;;;;5022987;28;20202;-53
2024/01/19 00:12:16;;;;;;;24.97;16.00;;;3.30;99.90;;;;;;5022473;28;20198;-52
2024/01/19 00:14:43;;;;;;;22.10;16.03;;;3.40;99.90;;;;;;5022152;28;20226;-52
2024/01/19 00:17:10;;;;;;;24.90;16.70;;;3.50;99.90;;;;;;5023661;28;20206;-53
2024/01/19 00:19:36;;;;;;;31.20;16.93;;;3.50;99.90;;;;;;5026704;28;20214;-52
2024/01/19 00:22:03;;;;;;;26.40;16.53;;;3.50;99.90;;;;;;5027181;28;20248;-52
2024/01/19 00:24:30;;;;;;;23.20;15.47;;;3.50;99.90;;;;;;5024586;28;20234;-53
2024/01/19 00:26:59;;;;;;;25.70;16.60;;;3.50;99.90;;;;;;5023978;28;20203;-52
2024/01/19 00:29:25;;;;;;;24.13;16.60;;;3.50;99.90;;;;;;5025329;28;20199;-53
2024/01/19 00:31:52;;;;;;;26.07;16.33;;;3.40;99.90;;;;;;5027288;28;20707;-53
2024/01/19 00:34:19;;;;;;;21.53;15.07;;;3.50;99.90;;;;;;5025897;28;20221;-57
2024/01/19 00:36:46;;;;;;;24.77;15.43;;;3.50;99.90;;;;;;5023698;28;20207;-54
2024/01/19 00:39:13;;;;;;;26.63;15.43;;;3.50;99.90;;;;;;5023274;28;20619;-55
2024/01/19 00:41:39;;;;;;;23.87;16.07;;;3.50;99.90;;;;;;5026709;28;20686;-53
2024/01/19 00:44:07;;;;;;;22.10;15.07;;;3.50;99.90;;;;;;5026796;28;20312;-54
2024/01/19 00:46:34;;;;;;;26.00;16.30;;;3.50;99.90;;;;;;5023447;28;20258;-54
2024/01/19 00:49:01;;;;;;;23.33;15.70;;;3.50;99.90;;;;;;5023467;28;20203;-55
2024/01/19 00:51:27;;;;;;;25.30;16.13;;;3.50;99.90;;;;;;5025081;28;20685;-55
2024/01/19 00:53:54;;;;;;;22.80;14.77;;;3.60;99.90;;;;;;5026391;28;20756;-54
2024/01/19 00:56:21;;;;;;;24.83;15.33;;;3.60;99.90;;;;;;5025331;28;20206;-55
2024/01/19 00:58:47;;;;;;;27.77;16.13;;;3.60;99.90;;;;;;5022863;28;20223;-54
2024/01/19 01:01:15;;;;;;;23.43;16.00;;;3.40;99.90;;;;;;5022962;28;20311;-56
2024/01/19 01:03:42;;;;;;;23.97;15.67;;;3.40;99.90;;;;;;5026335;28;20344;-55
2024/01/19 01:06:09;;;;;;;22.87;14.60;;;3.40;99.90;;;;;;5026086;28;20229;-55
2024/01/19 01:08:36;;;;;;;22.83;15.80;;;3.50;99.90;;;;;;5023142;28;20204;-54
2024/01/19 01:11:04;;;;;;;22.30;15.60;;;3.60;99.90;;;;;;5022677;28;20203;-56
2024/01/19 01:13:30;;;;;;;25.80;16.60;;;3.60;99.90;;;;;;5024557;28;20285;-55
2024/01/19 01:15:57;;;;;;;24.20;15.93;;;3.70;99.90;;;;;;5026158;28;20214;-56
2024/01/19 01:18:25;;;;;;;23.60;16.60;;;3.70;99.90;;;;;;5024762;28;20209;-55
2024/01/19 01:20:52;;;;;;;23.87;16.33;;;3.70;99.90;;;;;;5022334;28;20627;-55
2024/01/19 01:23:19;;;;;;;22.77;15.57;;;3.50;99.90;;;;;;5023212;28;20301;-55
2024/01/19 01:25:46;;;;;;;25.37;15.93;;;3.40;99.90;;;;;;5025252;28;20210;-53
2024/01/19 01:28:12;;;;;;;23.67;15.73;;;3.50;99.90;;;;;;5025782;28;20668;-54
2024/01/19 01:30:40;;;;;;;27.47;15.57;;;3.60;99.90;;;;;;5014421;28;20199;-54
2024/01/19 01:33:07;;;;;;;24.40;16.23;;;3.60;99.90;;;;;;5022475;28;20207;-54
2024/01/19 01:35:35;;;;;;;24.00;15.67;;;3.60;99.90;;;;;;5024538;28;20238;-55
2024/01/19 01:38:02;;;;;;;24.57;16.13;;;3.60;99.90;;;;;;5018903;28;20207;-56
2024/01/19 01:40:29;;;;;;;25.83;16.87;;;3.60;99.90;;;;;;5021904;28;20609;-55
2024/01/19 01:42:58;;;;;;;24.00;16.57;;;3.60;99.90;;;;;;5021820;28;20571;-55
2024/01/19 01:45:24;;;;;;;24.93;17.07;;;3.60;99.90;;;;;;5023133;28;20199;-54
2024/01/19 01:47:51;;;;;;;25.33;17.33;;;3.60;99.90;;;;;;5025387;28;20214;-55
2024/01/19 01:50:18;;;;;;;27.63;16.60;;;3.50;99.90;;;;;;5024891;28;20202;-55
2024/01/19 01:52:46;;;;;;;23.83;16.63;;;3.60;99.90;;;;;;5021783;28;20199;-55
2024/01/19 01:55:13;;;;;;;24.93;16.50;;;3.60;99.90;;;;;;5021239;28;20253;-55
2024/01/19 01:57:42;;;;;;;26.17;16.73;;;3.50;99.90;;;;;;5021893;28;20262;-54
2024/01/19 02:00:11;;;;;;;27.87;16.87;;;3.40;99.90;;;;;;5021660;28;20230;-55
2024/01/19 02:02:38;;;;;;;24.13;16.30;;;3.40;99.90;;;;;;5024577;28;20205;-55
2024/01/19 02:05:06;;;;;;;24.40;15.73;;;3.50;99.90;;;;;;5024805;28;20235;-54
2024/01/19 02:07:33;;;;;;;25.03;16.60;;;3.50;99.90;;;;;;5022699;28;20291;-54
2024/01/19 02:10:01;;;;;;;25.63;16.80;;;3.50;99.90;;;;;;5021402;28;20199;-56
2024/01/19 02:12:28;;;;;;;22.23;15.30;;;3.50;99.90;;;;;;5023226;28;20301;-54
2024/01/19 02:14:56;;;;;;;23.83;15.40;;;3.50;99.90;;;;;;5024619;28;20222;-55
2024/01/19 02:17:23;;;;;;;23.13;15.60;;;3.40;99.90;;;;;;5023633;28;20205;-55
2024/01/19 02:19:50;;;;;;;23.87;15.87;;;3.30;99.90;;;;;;5021268;28;20215;-55
2024/01/19 02:22:19;;;;;;;24.37;16.67;;;3.20;99.90;;;;;;5021493;28;20626;-55
2024/01/19 02:24:47;;;;;;;23.23;15.77;;;3.20;99.90;;;;;;5024627;28;20222;-55
2024/01/19 02:27:15;;;;;;;24.93;16.63;;;3.20;99.90;;;;;;5024679;28;20206;-55
2024/01/19 02:29:49;;;;;;;26.33;16.70;;;3.20;99.90;;;;;;5013037;28;20226;-55
2024/01/19 02:32:16;;;;;;;22.97;16.23;;;3.20;99.90;;;;;;5021065;28;20214;-54
2024/01/19 02:34:45;;;;;;;23.87;16.83;;;3.20;99.90;;;;;;5012793;28;20273;-53
2024/01/19 02:37:12;;;;;;;23.70;15.53;;;3.20;99.90;;;;;;5020386;28;20214;-55
2024/01/19 02:39:39;;;;;;;23.07;15.83;;;3.20;99.90;;;;;;5024037;28;20222;-55
2024/01/19 02:42:07;;;;;;;24.67;16.70;;;3.20;99.90;;;;;;5024170;28;20679;-54
2024/01/19 02:44:34;;;;;;;24.50;16.83;;;3.20;99.90;;;;;;5021584;28;20230;-54
2024/01/19 02:47:01;;;;;;;24.07;16.67;;;3.20;99.90;;;;;;5020683;28;20470;-55
2024/01/19 02:49:27;;;;;;;25.03;16.87;;;3.10;99.90;;;;;;5021950;28;20207;-54
2024/01/19 02:51:54;;;;;;;24.20;16.60;;;3.10;99.90;;;;;;5024121;28;20235;-54
2024/01/19 02:54:21;;;;;;;25.33;16.43;;;3.10;99.90;;;;;;5023127;28;20284;-56
2024/01/19 02:56:47;;;;;;;23.10;16.37;;;3.00;99.90;;;;;;5020334;28;20230;-55
2024/01/19 02:59:16;;;;;;;25.37;17.23;;;2.90;99.90;;;;;;5020585;28;20203;-54
2024/01/19 03:01:43;;;;;;;24.30;16.37;;;2.70;99.90;;;;;;5012656;28;20681;-55
2024/01/19 03:04:09;;;;;;;23.73;16.80;;;2.60;99.90;;;;;;5020415;28;20612;-54
2024/01/19 03:06:36;;;;;;;24.10;15.30;;;2.20;99.90;;;;;;5022821;28;20261;-55
2024/01/19 03:09:03;;;;;;;23.10;15.77;;;2.00;99.90;;;;;;5024054;28;20206;-55
2024/01/19 03:11:30;;;;;;;22.07;15.17;;;2.10;99.90;;;;;;5022144;28;20207;-54
2024/01/19 03:13:56;;;;;;;24.73;16.77;;;2.10;99.90;;;;;;5021055;28;20285;-53
2024/01/19 03:16:24;;;;;;;26.07;16.80;;;2.10;99.90;;;;;;5021373;28;20214;-55
2024/01/19 03:18:54;;;;;;;24.50;16.23;;;2.10;99.90;;;;;;5025182;28;20264;-54
2024/01/19 03:21:21;;;;;;;21.47;14.83;;;2.30;99.90;;;;;;5024214;28;20616;-55
2024/01/19 03:23:48;;;;;;;27.30;17.27;;;2.50;99.90;;;;;;5020132;28;20223;-53
2024/01/19 03:26:15;;;;;;;25.67;15.07;;;2.60;99.90;;;;;;5019817;28;20584;-54
2024/01/19 03:28:41;;;;;;;26.07;16.03;;;2.80;99.90;;;;;;5023201;28;20242;-54
2024/01/19 03:31:08;;;;;;;24.87;16.00;;;2.90;99.90;;;;;;5023229;28;20198;-54
2024/01/19 03:33:36;;;;;;;21.80;15.50;;;2.90;99.90;;;;;;5021112;28;20280;-55
2024/01/19 03:36:03;;;;;;;25.40;16.40;;;3.00;99.90;;;;;;5019756;28;20261;-54
2024/01/19 03:38:30;;;;;;;23.33;15.77;;;3.00;99.90;;;;;;5021651;28;20238;-55
2024/01/19 03:40:57;;;;;;;19.37;15.30;;;3.10;99.90;;;;;;5023299;28;20608;-54
2024/01/19 03:43:24;;;;;;;23.17;15.93;;;3.20;99.90;;;;;;5022334;28;20380;-53
2024/01/19 03:45:51;;;;;;;21.83;14.70;;;3.20;99.90;;;;;;5019461;28;20286;-56
2024/01/19 03:48:18;;;;;;;23.63;14.93;;;3.30;99.90;;;;;;5019129;28;20308;-55
2024/01/19 03:50:46;;;;;;;24.13;15.43;;;3.40;99.90;;;;;;5023120;28;20206;-54
2024/01/19 03:53:12;;;;;;;20.40;14.80;;;3.40;99.90;;;;;;5023241;28;20219;-54
2024/01/19 03:55:39;;;;;;;24.90;16.03;;;3.50;99.90;;;;;;5020160;28;20270;-54
2024/01/19 03:58:06;;;;;;;23.70;15.43;;;3.50;99.90;;;;;;5019713;28;20257;-54
2024/01/19 04:00:32;;;;;;;22.83;14.63;;;3.50;99.90;;;;;;5021254;28;20226;-52
2024/01/19 04:02:59;;;;;;;22.20;14.60;;;3.40;99.90;;;;;;5023043;28;20206;-52
2024/01/19 04:05:26;;;;;;;20.57;13.93;;;3.30;99.90;;;;;;5021807;28;20225;-53
2024/01/19 04:07:54;;;;;;;21.00;14.70;;;3.30;99.90;;;;;;5019584;28;20262;-54
2024/01/19 04:10:21;;;;;;;20.37;14.53;;;3.40;99.90;;;;;;5019611;28;20611;-53
2024/01/19 04:12:50;;;;;;;21.73;14.63;;;3.30;99.90;;;;;;5022735;28;20211;-54
2024/01/19 04:15:16;;;;;;;20.57;14.23;;;3.30;99.90;;;;;;5022681;28;20264;-52
2024/01/19 04:17:44;;;;;;;19.83;13.63;;;3.10;99.90;;;;;;5019416;28;20372;-53
2024/01/19 04:20:11;;;;;;;23.30;14.37;;;3.00;99.90;;;;;;5019727;28;20249;-53
2024/01/19 04:22:38;;;;;;;21.17;14.27;;;2.90;99.90;;;;;;5022011;28;20214;-53
2024/01/19 04:25:07;;;;;;;22.53;13.70;;;2.80;99.90;;;;;;5022422;28;20226;-54
2024/01/19 04:27:34;;;;;;;19.50;13.00;;;2.70;99.90;;;;;;5020685;28;20574;-52
2024/01/19 04:30:00;;;;;;;22.70;13.53;;;2.60;99.90;;;;;;5025211;28;20206;-52
2024/01/19 04:32:27;;;;;;;19.67;12.70;;;2.60;99.90;;;;;;5021327;28;20722;-54
2024/01/19 04:34:54;;;;;;;22.73;13.17;;;2.70;99.90;;;;;;5018927;28;20226;-52
2024/01/19 04:37:20;;;;;;;18.47;12.47;;;2.80;99.90;;;;;;5019177;28;20199;-53
2024/01/19 04:39:47;;;;;;;17.80;12.77;;;2.70;99.90;;;;;;5022575;28;20202;-52
2024/01/19 04:42:15;;;;;;;20.63;12.50;;;2.70;99.90;;;;;;5022678;28;20210;-54
2024/01/19 04:44:42;;;;;;;17.50;12.57;;;2.80;99.90;;;;;;5019397;28;20219;-52
2024/01/19 04:47:09;;;;;;;16.77;12.30;;;2.90;99.90;;;;;;5019235;28;20290;-52
2024/01/19 04:49:35;;;;;;;20.17;12.53;;;2.90;99.90;;;;;;5021195;28;20214;-52
2024/01/19 04:52:02;;;;;;;20.33;13.17;;;3.00;99.90;;;;;;5022745;28;20206;-53
2024/01/19 04:54:29;;;;;;;19.03;13.00;;;3.00;99.90;;;;;;5020900;28;20233;-51
2024/01/19 04:56:55;;;;;;;20.93;13.47;;;3.10;99.90;;;;;;5019029;28;20203;-54
2024/01/19 04:59:25;;;;;;;17.70;12.97;;;3.10;99.90;;;;;;5019935;28;20214;-53
2024/01/19 05:01:51;;;;;;;18.73;13.63;;;3.20;99.90;;;;;;5026080;28;20218;-52
2024/01/19 05:04:18;;;;;;;18.83;12.40;;;3.20;99.90;;;;;;5025934;28;20229;-52
2024/01/19 05:06:45;;;;;;;20.33;13.00;;;3.20;99.90;;;;;;5022347;28;20203;-53
2024/01/19 05:09:11;;;;;;;19.20;13.33;;;3.20;99.90;;;;;;5022663;28;20681;-52
2024/01/19 05:11:38;;;;;;;18.63;13.10;;;3.20;99.90;;;;;;5024754;28;20199;-53
2024/01/19 05:14:06;;;;;;;19.00;12.83;;;3.20;99.90;;;;;;5025972;28;20299;-52
2024/01/19 05:16:34;;;;;;;20.57;13.30;;;3.20;99.90;;;;;;5023873;28;20213;-52
2024/01/19 05:19:01;;;;;;;20.00;12.50;;;3.10;99.90;;;;;;5022551;28;20241;-52
2024/01/19 05:21:27;;;;;;;20.30;13.70;;;3.10;99.90;;;;;;5022803;28;20630;-52
2024/01/19 05:23:54;;;;;;;19.40;13.27;;;3.00;99.90;;;;;;5025584;28;20635;-52
2024/01/19 05:26:20;;;;;;;18.40;12.73;;;3.00;99.90;;;;;;5025267;28;20714;-53
2024/01/19 05:28:47;;;;;;;23.67;13.53;;;3.00;99.90;;;;;;5022212;28;20207;-52
2024/01/19 05:31:14;;;;;;;22.50;13.30;;;3.00;99.90;;;;;;5022122;28;20664;-52
2024/01/19 05:33:42;;;;;;;19.23;12.83;;;3.00;99.90;;;;;;5024567;28;20231;-53
2024/01/19 05:36:09;;;;;;;14.77;11.07;;;3.00;99.90;;;;;;5025255;28;20206;-53
2024/01/19 05:38:35;;;;;;;18.77;12.67;;;3.00;99.90;;;;;;5023667;28;20213;-53
2024/01/19 05:41:03;;;;;;;17.83;11.93;;;3.00;99.90;;;;;;5021982;28;20222;-53
2024/01/19 05:43:30;;;;;;;17.30;12.07;;;3.00;99.90;;;;;;5022969;28;20230;-53
2024/01/19 05:45:57;;;;;;;18.13;12.73;;;3.00;99.90;;;;;;5025254;28;20588;-51
2024/01/19 05:48:25;;;;;;;17.73;12.07;;;2.90;99.90;;;;;;5025700;28;20209;-52
2024/01/19 05:50:53;;;;;;;16.97;12.10;;;2.90;99.90;;;;;;5022806;28;20245;-52
2024/01/19 05:53:19;;;;;;;17.73;11.07;;;2.90;99.90;;;;;;5021656;28;20640;-53
2024/01/19 05:55:46;;;;;;;19.60;12.83;;;3.00;99.90;;;;;;5024911;28;20207;-52
2024/01/19 05:58:13;;;;;;;18.27;11.60;;;3.00;99.90;;;;;;5025272;28;20210;-54
2024/01/19 06:00:39;;;;;;;21.43;12.13;;;3.10;99.90;;;;;;5023040;28;20226;-52
2024/01/19 06:03:06;;;;;;;19.93;12.40;;;3.10;99.90;;;;;;5022231;28;20203;-53
2024/01/19 06:05:33;;;;;;;20.87;12.33;;;3.20;99.90;;;;;;5022861;28;20585;-52
2024/01/19 06:08:01;;;;;;;20.03;13.03;;;3.20;99.90;;;;;;5024817;28;20606;-53
2024/01/19 06:10:27;;;;;;;19.50;12.30;;;3.20;99.90;;;;;;5024234;28;20209;-52
2024/01/19 06:12:54;;;;;;;17.93;12.13;;;3.20;99.90;;;;;;5020723;28;20210;-53
2024/01/19 06:15:21;;;;;;;23.57;14.43;;;3.20;99.90;;;;;;5021037;28;20688;-53
2024/01/19 06:17:47;;;;;;;17.30;12.77;;;3.30;99.90;;;;;;5013110;28;20231;-53
2024/01/19 06:20:14;;;;;;;17.20;12.37;;;3.30;99.90;;;;;;5021154;28;20202;-53
2024/01/19 06:22:41;;;;;;;16.63;12.47;;;3.20;99.90;;;;;;5023796;28;20261;-52
2024/01/19 06:25:09;;;;;;;20.70;12.30;;;3.20;99.90;;;;;;5024284;28;20230;-52
2024/01/19 06:27:36;;;;;;;18.27;13.03;;;3.10;99.90;;;;;;5022923;28;20221;-52
2024/01/19 06:30:03;;;;;;;21.83;13.67;;;3.00;99.90;;;;;;5021418;28;20233;-53
2024/01/19 06:32:30;;;;;;;32.37;17.00;;;2.80;99.90;;;;;;5021716;28;20607;-53
2024/01/19 06:34:57;;;;;;;19.90;13.20;;;2.70;99.90;;;;;;5024344;28;20977;-52
2024/01/19 06:37:24;;;;;;;29.90;19.03;;;2.50;99.90;;;;;;5023967;28;20619;-53
2024/01/19 06:39:50;;;;;;;18.37;13.53;;;2.30;99.90;;;;;;5021154;28;20215;-53
2024/01/19 06:42:19;;;;;;;17.97;13.17;;;2.20;99.90;;;;;;5020819;28;20298;-53
2024/01/19 06:44:45;;;;;;;17.40;12.07;;;2.10;99.90;;;;;;5023304;28;20305;-52
2024/01/19 06:47:12;;;;;;;20.77;12.73;;;2.10;99.90;;;;;;5024034;28;20206;-53
2024/01/19 06:49:39;;;;;;;20.43;13.13;;;2.00;99.90;;;;;;5021610;28;20633;-52
2024/01/19 06:52:07;;;;;;;22.77;14.83;;;2.00;99.90;;;;;;5020607;28;20225;-54
2024/01/19 06:54:33;;;;;;;19.90;13.43;;;2.00;99.90;;;;;;5021413;28;20234;-52
2024/01/19 06:57:01;;;;;;;19.53;12.70;;;2.00;99.90;;;;;;5023890;28;20579;-53
2024/01/19 06:59:29;;;;;;;21.87;13.33;;;1.80;99.90;;;;;;5023075;28;20214;-52
2024/01/19 07:01:55;;;;;;;21.67;13.43;;;1.90;99.90;;;;;;5020354;28;20237;-52
2024/01/19 07:04:22;;;;;;;18.83;12.93;;;1.90;99.90;;;;;;5020532;28;20234;-53
2024/01/19 07:06:49;;;;;;;18.17;11.87;;;2.00;99.90;;;;;;5023736;28;20581;-53
2024/01/19 07:09:17;;;;;;;20.50;12.10;;;2.10;99.90;;;;;;5023699;28;20620;-53
2024/01/19 07:11:44;;;;;;;17.37;12.23;;;2.30;99.90;;;;;;5020882;28;20256;-53
2024/01/19 07:14:10;;;;;;;18.13;11.60;;;2.50;99.90;;;;;;5020199;28;20580;-52
2024/01/19 07:16:41;;;;;;;22.40;13.10;;;2.60;99.90;;;;;;5021569;28;20317;-52
2024/01/19 07:19:07;;;;;;;16.97;11.53;;;2.50;99.90;;;;;;5023806;28;20202;-53
2024/01/19 07:21:37;;;;;;;19.83;12.03;;;2.40;99.90;;;;;;5021957;28;20419;-52
2024/01/19 07:24:04;;;;;;;25.73;15.63;;;2.30;99.90;;;;;;5019980;28;20599;-52
2024/01/19 07:26:31;;;;;;;20.00;12.00;;;2.30;99.90;;;;;;5020422;28;20241;-53
2024/01/19 07:28:58;;;;;;;20.30;12.43;;;2.50;99.90;;;;;;5023332;28;20233;-52
2024/01/19 07:31:25;;;;;;;18.50;12.13;;;2.70;99.90;;;;;;5023370;28;20285;-53
2024/01/19 07:33:53;;;;;;;17.07;10.80;;;2.90;99.90;;;;;;5015521;28;20226;-52
2024/01/19 07:36:19;;;;;;;22.60;13.07;;;3.00;99.90;;;;;;5023138;28;20210;-53
2024/01/19 07:38:45;;;;;;;19.53;11.47;;;2.90;99.90;;;;;;5020340;28;20214;-52
2024/01/19 07:41:12;;;;;;;19.93;11.73;;;2.90;99.90;;;;;;5019700;28;20646;-52
2024/01/19 07:43:39;;;;;;;17.00;11.80;;;2.90;99.90;;;;;;5021163;28;20235;-53
2024/01/19 07:46:06;;;;;;;17.27;12.97;;;3.00;99.90;;;;;;5022756;28;20207;-52
2024/01/19 07:48:32;;;;;;;17.97;12.30;;;3.00;99.90;;;;;;5022023;28;20220;-51
2024/01/19 07:51:00;;;;;;;17.50;11.53;;;3.10;99.90;;;;;;5019878;28;20238;-54
2024/01/19 07:53:27;;;;;;;19.87;12.23;;;3.30;99.90;;;;;;5019468;28;20230;-55
2024/01/19 07:55:53;;;;;;;17.77;12.07;;;3.50;99.90;;;;;;5023114;28;20676;-52
2024/01/19 07:58:21;;;;;;;16.43;11.30;;;3.60;99.90;;;;;;5023585;28;20268;-53
2024/01/19 08:00:48;;;;;;;18.23;11.60;;;3.70;99.90;;;;;;5019853;28;20209;-52
2024/01/19 08:03:15;;;;;;;16.60;12.13;;;3.70;99.90;;;;;;5019784;28;20269;-52
2024/01/19 08:05:41;;;;;;;18.07;11.30;;;3.70;99.90;;;;;;5021451;28;20226;-53
2024/01/19 08:08:09;;;;;;;17.67;11.33;;;3.70;99.90;;;;;;5022763;28;20664;-53
2024/01/19 08:10:37;;;;;;;17.80;11.93;;;3.70;99.90;;;;;;5021318;28;20206;-52
2024/01/19 08:13:04;;;;;;;15.57;11.20;;;3.60;99.90;;;;;;5019036;28;20682;-53
2024/01/19 08:15:31;;;;;;;19.57;11.40;;;3.50;99.90;;;;;;5019378;28;20207;-52
2024/01/19 08:17:57;;;;;;;16.90;11.60;;;3.30;99.90;;;;;;5022765;28;20277;-52
2024/01/19 08:20:25;;;;;;;18.73;11.83;;;3.20;99.90;;;;;;5022662;28;20241;-52
2024/01/19 08:22:53;;;;;;;21.60;12.10;;;3.20;99.90;;;;;;5019103;28;20224;-52
2024/01/19 08:25:21;;;;;;;13.63;10.53;;;3.30;99.90;;;;;;5019527;28;20298;-58
2024/01/19 08:27:48;;;;;;;21.93;14.70;;;3.50;99.90;;;;;;5019358;28;20210;-51
2024/01/19 08:30:16;;;;;;;21.00;13.23;;;3.60;99.90;;;;;;5019097;28;20552;-51
2024/01/19 08:32:42;;;;;;;17.63;11.30;;;3.70;99.90;;;;;;5027237;28;20738;-52
2024/01/19 08:35:09;;;;;;;18.67;11.03;;;3.80;99.90;;;;;;5020484;28;20234;-51
2024/01/19 08:37:37;;;;;;;18.10;10.87;;;4.00;99.90;;;;;;5024453;28;20293;-53
2024/01/19 08:40:05;;;;;;;23.20;15.47;;;4.20;99.90;;;;;;5026396;28;20679;-52
2024/01/19 08:42:33;;;;;;;19.10;12.43;;;4.20;99.90;;;;;;5025562;28;20234;-52
2024/01/19 08:45:00;;;;;;;18.97;12.47;;;4.30;99.90;;;;;;5022799;28;20245;-52
2024/01/19 08:47:27;;;;;;;25.93;17.97;;;4.40;99.90;;;;;;5023035;28;20207;-52
2024/01/19 08:49:53;;;;;;;22.03;13.73;;;4.50;99.90;;;;;;5014803;28;20203;-52
2024/01/19 08:52:20;;;;;;;22.60;14.43;;;4.60;99.90;;;;;;5023082;28;20195;-54
2024/01/19 08:54:47;;;;;;;17.13;11.73;;;4.80;99.90;;;;;;5024996;28;20226;-52
2024/01/19 08:57:14;;;;;;;15.63;10.50;;;4.90;99.90;;;;;;5026267;28;20206;-53
2024/01/19 08:59:42;;;;;;;16.47;10.23;;;5.10;99.90;;;;;;5024203;28;20593;-53
2024/01/19 09:02:09;;;;;;;14.70;10.60;;;5.10;99.90;;;;;;5022722;28;20218;-53
2024/01/19 09:04:36;;;;;;;16.23;11.13;;;5.20;99.90;;;;;;5023175;28;20226;-53
2024/01/19 09:07:02;;;;;;;15.90;10.23;;;5.20;99.90;;;;;;5026177;28;20259;-55
2024/01/19 09:09:29;;;;;;;14.10;10.30;;;5.20;99.90;;;;;;5026172;28;20258;-52
2024/01/19 09:11:56;;;;;;;14.80;10.47;;;5.20;99.90;;;;;;5025978;28;20206;-52
2024/01/19 09:14:23;;;;;;;16.23;10.80;;;5.10;99.90;;;;;;5025935;28;20218;-53
2024/01/19 09:16:51;;;;;;;15.50;10.87;;;5.20;99.90;;;;;;5019665;28;20213;-56
2024/01/19 09:19:18;;;;;;;17.83;10.20;;;5.20;99.90;;;;;;5026046;28;20840;-54
2024/01/19 09:21:44;;;;;;;14.53;10.50;;;5.30;99.90;;;;;;5023336;28;20226;-55
2024/01/19 09:24:11;;;;;;;16.27;10.43;;;5.20;99.90;;;;;;5022545;28;20269;-56
2024/01/19 09:26:38;;;;;;;12.80;9.37;;;5.10;99.90;;;;;;5022970;28;20293;-56
2024/01/19 09:29:08;;;;;;;16.47;10.90;;;5.10;99.90;;;;;;5025357;28;20253;-55
2024/01/19 09:31:34;;;;;;;15.43;10.30;;;5.10;99.90;;;;;;5024316;28;20202;-54
2024/01/19 09:34:02;;;;;;;14.43;10.13;;;5.10;99.90;;;;;;5022166;28;20229;-56
2024/01/19 09:36:29;;;;;;;15.03;10.53;;;5.10;99.90;;;;;;5021827;28;20211;-55
2024/01/19 09:38:55;;;;;;;16.40;10.77;;;5.20;99.90;;;;;;5025094;28;20260;-55
2024/01/19 09:41:38;;;;;;;15.00;9.30;;;5.40;99.90;;;;;;5025187;28;20203;-52
2024/01/19 09:44:10;;;;;;;17.00;9.10;;;5.50;99.90;;;;;;5015039;28;20225;-52
2024/01/19 09:47:04;;;;;;;14.70;8.40;;;5.70;99.90;;;;;;5021318;28;20277;-52
2024/01/19 09:49:40;;;;;;;14.30;8.33;;;5.70;99.90;;;;;;5024893;28;20244;-52
2024/01/19 09:52:24;;;;;;;13.20;8.90;;;5.70;99.90;;;;;;5022110;28;20221;-52
2024/01/19 09:54:51;;;;;;;13.27;9.00;;;5.70;99.90;;;;;;5026532;22;20236;-57
2024/01/19 09:57:18;;;;;;;12.90;8.73;;;5.60;99.90;;;;;;4982848;28;20208;-58
2024/01/19 09:59:45;;;;;;;14.93;8.97;;;5.70;99.90;;;;;;4984702;28;20267;-58
2024/01/19 10:02:13;;;;;;;13.63;8.33;;;5.70;99.90;;;;;;4986386;28;20314;-56
2024/01/19 10:04:41;;;;;;;13.07;8.63;;;5.70;99.90;;;;;;4984229;28;20318;-57
2024/01/19 10:07:10;;;;;;;13.10;8.40;;;5.60;99.90;;;;;;4982432;28;20204;-57
2024/01/19 10:09:37;;;;;;;12.23;8.50;;;5.20;99.90;;;;;;4983523;28;20208;-58
2024/01/19 10:12:07;;;;;;;15.03;9.23;;;5.20;99.90;;;;;;4985682;28;20219;-58
2024/01/19 10:14:34;;;;;;;15.97;9.83;;;5.10;99.90;;;;;;4984783;28;20311;-57
2024/01/19 10:17:02;;;;;;;15.50;10.27;;;5.20;99.90;;;;;;4982340;28;20292;-57
2024/01/19 10:19:30;;;;;;;13.10;9.50;;;5.20;99.90;;;;;;4981950;28;20669;-57
2024/01/19 10:21:58;;;;;;;16.20;10.20;;;5.10;99.90;;;;;;4982154;28;20216;-57
2024/01/19 10:24:25;;;;;;;14.37;10.53;;;5.20;99.90;;;;;;4982503;28;20224;-56
2024/01/19 10:26:54;;;;;;;16.57;10.37;;;5.30;99.90;;;;;;4984550;28;20547;-56
2024/01/19 10:29:21;;;;;;;16.40;10.00;;;5.50;99.90;;;;;;4985528;28;20203;-65
2024/01/19 10:31:49;;;;;;;15.33;11.30;;;5.70;99.90;;;;;;4983138;28;20208;-65
2024/01/19 10:34:18;;;;;;;16.87;10.00;;;5.90;99.90;;;;;;4982712;28;20252;-66
2024/01/19 10:36:45;;;;;;;13.83;10.63;;;6.10;99.90;;;;;;4983941;28;20655;-65
2024/01/19 10:39:20;;;;;;;16.07;11.20;;;6.10;99.90;;;;;;4985874;28;20204;-64
2024/01/19 10:41:47;;;;;;;15.13;10.07;;;6.30;99.90;;;;;;4982810;28;20211;-63
2024/01/19 10:44:16;;;;;;;14.40;10.80;;;6.40;99.90;;;;;;4981620;28;20224;-63
2024/01/19 10:46:43;;;;;;;16.60;10.83;;;6.60;99.90;;;;;;4982862;28;20683;-62
2024/01/19 10:49:12;;;;;;;13.57;10.10;;;6.70;99.90;;;;;;4985234;28;20214;-60
2024/01/19 10:51:40;;;;;;;14.60;9.70;;;6.80;99.90;;;;;;4983993;28;20212;-64
2024/01/19 10:54:07;;;;;;;14.77;10.53;;;7.00;99.90;;;;;;4981535;28;20319;-62
2024/01/19 10:56:35;;;;;;;14.97;10.77;;;7.20;99.90;;;;;;4981605;28;20212;-61
2024/01/19 10:59:11;;;;;;;13.70;9.93;;;7.40;99.90;;;;;;4984365;28;20568;-62
2024/01/19 11:01:38;;;;;;;14.17;10.27;;;7.40;99.90;;;;;;4983769;28;20234;-63
2024/01/19 11:04:08;;;;;;;14.23;10.47;;;7.30;99.90;;;;;;4981462;28;20227;-63
2024/01/19 11:06:36;;;;;;;16.67;10.80;;;7.10;99.90;;;;;;4981637;28;20292;-63
2024/01/19 11:09:03;;;;;;;17.77;10.87;;;7.10;99.90;;;;;;4984559;28;20200;-64
2024/01/19 11:11:32;;;;;;;18.17;11.97;;;6.90;99.90;;;;;;4984628;28;20602;-64
2024/01/19 11:14:02;;;;;;;13.47;9.53;;;6.60;99.90;;;;;;4981219;28;20371;-61
2024/01/19 11:16:32;;;;;;;14.33;10.00;;;6.30;99.90;;;;;;4980995;28;20303;-62
2024/01/19 11:19:00;;;;;;;27.97;18.03;;;6.00;99.90;;;;;;4981908;28;20209;-59
2024/01/19 11:21:27;;;;;;;14.37;10.20;;;5.90;99.90;;;;;;4982107;28;20670;-61
2024/01/19 11:23:54;;;;;;;16.40;10.70;;;5.80;99.90;;;;;;4984518;28;20720;-63
2024/01/19 11:26:26;;;;;;;13.33;9.67;;;5.80;99.90;;;;;;4984968;28;20216;-61
2024/01/19 11:28:57;;;;;;;14.90;10.83;;;5.90;99.90;;;;;;4982455;28;20212;-62
2024/01/19 11:31:29;;;;;;;16.87;10.80;;;5.90;99.90;;;;;;4981539;28;20293;-62
2024/01/19 11:33:55;;;;;;;14.90;10.67;;;5.70;99.90;;;;;;4984642;28;20319;-61
2024/01/19 11:36:49;;;;;;;14.80;10.97;;;5.70;99.90;;;;;;4985215;28;20294;-61
2024/01/19 11:39:38;;;;;;;16.73;10.50;;;5.40;99.90;;;;;;4951005;28;20254;-57
2024/01/19 11:42:05;;;;;;;16.30;10.67;;;5.10;99.90;;;;;;4981976;28;20291;-56
2024/01/19 11:44:53;;;;;;;15.20;11.83;;;4.90;99.90;;;;;;4981135;28;20326;-57
2024/01/19 11:47:48;;;;;;;15.30;10.40;;;4.80;99.90;;;;;;4975980;28;20685;-55
2024/01/19 11:50:14;;;;;;;14.37;10.97;;;5.00;99.90;;;;;;4963061;28;20216;-56
2024/01/19 11:52:43;;;;;;;17.17;10.47;;;4.70;99.90;;;;;;4981849;28;20200;-56
2024/01/19 11:55:35;;;;;;;16.90;10.97;;;4.70;99.90;;;;;;4983751;28;20235;-58
2024/01/19 11:58:27;;;;;;;11.70;9.13;;;4.80;99.90;;;;;;4980761;28;20307;-56
2024/01/19 12:00:55;;;;;;;15.03;10.43;;;4.70;99.90;;;;;;4983516;28;20294;-56
2024/01/19 12:03:23;;;;;;;16.90;11.07;;;4.40;99.90;;;;;;4977954;28;20251;-56
2024/01/19 12:05:51;;;;;;;15.17;11.13;;;4.20;99.90;;;;;;4982348;28;20520;-56
2024/01/19 12:08:17;;;;;;;13.20;10.60;;;4.30;99.90;;;;;;4984132;28;20208;-56
2024/01/19 12:10:44;;;;;;;14.93;11.53;;;4.50;99.90;;;;;;4981914;28;20203;-58
2024/01/19 12:13:12;;;;;;;19.63;12.00;;;4.90;99.90;;;;;;4980400;28;20235;-58
2024/01/19 12:15:40;;;;;;;14.30;10.97;;;5.20;99.90;;;;;;4980845;28;20250;-57
2024/01/19 12:18:07;;;;;;;15.83;11.00;;;5.40;99.90;;;;;;4983774;28;20238;-56
2024/01/19 12:20:35;;;;;;;18.87;11.50;;;5.50;99.90;;;;;;4984007;28;20215;-57
2024/01/19 12:23:02;;;;;;;21.03;14.20;;;5.50;99.90;;;;;;4983623;28;20223;-56
2024/01/19 12:25:28;;;;;;;17.60;11.37;;;5.60;99.90;;;;;;4983288;28;20785;-58
2024/01/19 12:28:06;;;;;;;15.33;11.07;;;5.80;99.90;;;;;;4980599;28;20210;-57
2024/01/19 12:30:34;;;;;;;13.60;10.90;;;6.10;99.90;;;;;;4980281;28;20215;-57
2024/01/19 12:33:14;;;;;;;15.57;11.20;;;6.10;99.90;;;;;;4983505;28;20250;-56
2024/01/19 12:35:45;;;;;;;18.43;11.00;;;6.10;99.90;;;;;;4982451;28;20294;-56
2024/01/19 12:38:12;;;;;;;13.97;11.37;;;6.10;99.90;;;;;;4980371;28;20208;-55
2024/01/19 12:40:40;;;;;;;13.70;11.33;;;6.20;99.90;;;;;;4980924;28;20216;-56